Time;durP1;ratioP1;P1;durP2;ratioP2;P2;SDS_P1;SDS_P2;PMS_P1;PMS_P2;Temp;Humidity;BMP_temperature;BMP_pressure;BME280_temperature;BME280_humidity;BME280_pressure;Samples;Min_cycle;Max_cycle;Signal;HPM_P1;HPM_P2
2022/04/14 03:01:30;;;;;;;9.73;9.13;;;7.60;99.90;;;;;;5412960;23;20363;-79
2022/04/14 03:03:56;;;;;;;10.87;10.23;;;7.50;99.90;;;;;;4938653;29;20245;-78
2022/04/14 03:06:22;;;;;;;11.47;9.70;;;7.50;99.90;;;;;;4937485;29;20746;-78
2022/04/14 03:08:48;;;;;;;19.07;17.33;;;7.40;99.90;;;;;;4936869;29;20198;-78
2022/04/14 03:11:13;;;;;;;22.40;21.00;;;7.40;99.90;;;;;;4928961;29;20211;-78
2022/04/14 03:13:40;;;;;;;19.93;18.73;;;7.50;99.90;;;;;;4945694;23;20200;-79
2022/04/14 03:16:06;;;;;;;12.30;11.50;;;7.50;99.90;;;;;;4990668;28;20200;-80
2022/04/14 03:18:33;;;;;;;11.00;9.93;;;7.40;99.90;;;;;;4988181;28;20207;-82
2022/04/14 03:20:59;;;;;;;14.27;12.97;;;7.40;99.90;;;;;;4989797;28;20294;-81
2022/04/14 03:23:24;;;;;;;14.57;13.53;;;7.20;99.90;;;;;;4990534;28;20180;-79
2022/04/14 03:25:50;;;;;;;29.17;27.47;;;7.30;99.90;;;;;;4974493;28;20181;-82
2022/04/14 03:28:16;;;;;;;23.20;21.67;;;7.30;99.90;;;;;;4971657;29;20205;-81
2022/04/14 03:30:42;;;;;;;34.97;32.83;;;7.40;99.90;;;;;;4974625;28;20209;-83
2022/04/14 03:33:08;;;;;;;47.17;44.43;;;7.30;99.90;;;;;;4973977;28;20217;-83
2022/04/14 03:35:34;;;;;;;44.70;41.87;;;7.40;99.90;;;;;;4969268;28;20197;-83
2022/04/14 03:37:59;;;;;;;21.80;20.27;;;7.40;99.90;;;;;;4968854;29;20178;-82
2022/04/14 03:40:25;;;;;;;22.60;20.83;;;7.40;99.90;;;;;;4969290;28;20672;-84
2022/04/14 03:42:51;;;;;;;16.03;14.97;;;7.40;99.90;;;;;;4967670;28;20189;-81
2022/04/14 03:45:17;;;;;;;16.97;15.83;;;7.40;99.90;;;;;;4968726;28;20748;-83
2022/04/14 03:47:43;;;;;;;14.63;13.73;;;7.40;99.90;;;;;;4967923;28;20201;-81
2022/04/14 03:50:09;;;;;;;15.07;13.50;;;7.40;99.90;;;;;;4969001;28;20208;-83
2022/04/14 03:52:34;;;;;;;14.37;12.83;;;7.40;99.90;;;;;;4967788;29;20448;-83
2022/04/14 03:55:00;;;;;;;14.10;13.13;;;7.30;99.90;;;;;;4953280;29;20214;-83
2022/04/14 03:57:26;;;;;;;13.47;12.20;;;7.30;99.90;;;;;;4950411;29;20198;-82
2022/04/14 03:59:52;;;;;;;11.13;9.77;;;7.20;99.90;;;;;;4949598;29;20193;-80
2022/04/14 04:02:18;;;;;;;10.97;9.97;;;7.10;99.90;;;;;;4949096;29;20182;-83
2022/04/14 04:04:43;;;;;;;9.63;8.93;;;7.20;99.90;;;;;;4952014;29;20229;-82
2022/04/14 04:07:09;;;;;;;11.77;10.67;;;7.10;99.90;;;;;;4958784;29;20189;-83
2022/04/14 04:09:36;;;;;;;21.07;19.63;;;7.10;99.90;;;;;;4973375;29;20271;-82
2022/04/14 04:12:02;;;;;;;21.10;19.80;;;7.10;99.90;;;;;;4978805;28;20241;-81
2022/04/14 04:14:28;;;;;;;21.33;20.13;;;7.10;99.90;;;;;;4973282;28;20228;-82
2022/04/14 04:16:54;;;;;;;33.93;32.03;;;7.00;99.90;;;;;;4970929;29;20200;-81
2022/04/14 04:19:19;;;;;;;16.53;15.57;;;7.00;99.90;;;;;;4972128;28;20214;-83
2022/04/14 04:21:45;;;;;;;15.40;14.07;;;7.00;99.90;;;;;;4962329;28;20220;-83
2022/04/14 04:24:11;;;;;;;15.00;13.83;;;6.90;99.90;;;;;;4952014;29;20209;-83
2022/04/14 04:26:36;;;;;;;40.00;37.43;;;6.90;99.90;;;;;;4952131;29;20182;-82
2022/04/14 04:29:02;;;;;;;46.27;43.67;;;6.90;99.90;;;;;;4952304;29;20206;-81
2022/04/14 04:31:28;;;;;;;21.37;19.80;;;7.00;99.90;;;;;;4951833;29;20214;-81
2022/04/14 04:33:54;;;;;;;46.97;44.27;;;6.90;99.90;;;;;;4951955;29;20228;-80
2022/04/14 04:36:20;;;;;;;40.07;37.87;;;7.00;99.90;;;;;;4963259;29;20201;-82
2022/04/14 04:38:46;;;;;;;23.17;21.17;;;7.00;99.90;;;;;;4970249;28;20186;-81
2022/04/14 04:41:12;;;;;;;18.87;17.27;;;6.90;99.90;;;;;;4964298;29;20186;-81
2022/04/14 04:43:38;;;;;;;14.17;13.27;;;6.90;99.90;;;;;;4951279;29;20218;-83
2022/04/14 04:46:04;;;;;;;14.17;13.17;;;6.90;99.90;;;;;;4952940;29;20198;-83
2022/04/14 04:48:29;;;;;;;15.87;14.77;;;6.90;99.90;;;;;;4951044;29;20218;-82
2022/04/14 04:50:56;;;;;;;17.63;16.43;;;6.90;99.90;;;;;;4954880;29;20530;-81
2022/04/14 04:53:21;;;;;;;24.63;23.07;;;7.00;99.90;;;;;;4961542;28;20190;-80
2022/04/14 04:55:47;;;;;;;22.83;21.50;;;7.10;99.90;;;;;;4957237;29;20217;-82
2022/04/14 04:58:14;;;;;;;11.53;10.67;;;7.10;99.90;;;;;;4948704;29;20182;-79
2022/04/14 05:00:41;;;;;;;13.57;12.57;;;7.10;99.90;;;;;;4948020;29;20193;-83
2022/04/14 05:03:11;;;;;;;26.07;24.47;;;7.10;99.90;;;;;;4957131;29;20238;-79
2022/04/14 05:05:43;;;;;;;17.33;16.10;;;7.20;99.90;;;;;;4976524;28;20206;-81
2022/04/14 05:08:09;;;;;;;16.57;15.17;;;7.30;99.90;;;;;;4971838;29;20174;-80
2022/04/14 05:10:35;;;;;;;14.13;12.63;;;7.30;99.90;;;;;;4956255;29;20192;-77
2022/04/14 05:13:01;;;;;;;19.13;17.83;;;7.50;99.90;;;;;;4955032;28;20220;-74
2022/04/14 05:15:27;;;;;;;19.17;17.87;;;7.70;99.90;;;;;;4953967;28;20217;-74
2022/04/14 05:17:52;;;;;;;10.33;8.37;;;7.90;99.90;;;;;;4954003;28;20880;-74
2022/04/14 05:20:18;;;;;;;10.60;9.00;;;8.10;99.90;;;;;;4970355;28;20196;-74
2022/04/14 05:22:44;;;;;;;10.70;9.70;;;8.30;99.90;;;;;;4955554;29;20718;-74
2022/04/14 05:25:10;;;;;;;25.63;23.90;;;8.40;99.90;;;;;;4954824;28;20293;-74
2022/04/14 05:27:35;;;;;;;30.27;28.47;;;8.60;99.90;;;;;;4953600;29;20671;-74
2022/04/14 05:30:03;;;;;;;20.53;9.37;;;8.90;99.90;;;;;;4955060;28;20186;-74
2022/04/14 05:32:28;;;;;;;17.57;13.17;;;9.30;99.90;;;;;;4969113;28;20209;-75
2022/04/14 05:34:54;;;;;;;30.53;28.63;;;9.70;99.90;;;;;;4954013;29;20202;-74
2022/04/14 05:37:20;;;;;;;20.33;19.03;;;9.90;99.90;;;;;;4953466;29;20188;-74
2022/04/14 05:39:46;;;;;;;12.30;11.17;;;10.20;99.90;;;;;;4953478;29;20241;-74
2022/04/14 05:42:12;;;;;;;10.97;8.03;;;10.50;99.90;;;;;;4955139;28;20249;-74
2022/04/14 05:44:38;;;;;;;12.40;11.70;;;10.90;99.90;;;;;;4952152;28;21058;-75
2022/04/14 05:47:04;;;;;;;9.40;8.60;;;11.10;99.90;;;;;;4935775;29;20690;-74
2022/04/14 05:49:30;;;;;;;8.13;7.40;;;11.40;99.90;;;;;;4934504;29;20252;-74
2022/04/14 05:51:55;;;;;;;10.03;9.33;;;11.60;99.90;;;;;;4935345;29;20225;-75
2022/04/14 05:54:21;;;;;;;10.87;9.53;;;12.00;99.90;;;;;;4935266;29;20674;-74
2022/04/14 05:56:47;;;;;;;8.30;7.57;;;12.30;99.90;;;;;;4935126;29;20216;-74
2022/04/14 05:59:18;;;;;;;9.80;8.70;;;12.50;99.90;;;;;;4938994;29;20185;-74
2022/04/14 06:01:45;;;;;;;11.07;9.97;;;12.70;99.90;;;;;;4954232;28;20224;-73
2022/04/14 06:04:11;;;;;;;10.03;9.07;;;12.90;99.90;;;;;;4954409;28;20198;-74
2022/04/14 06:06:37;;;;;;;10.13;9.43;;;13.00;99.90;;;;;;4954186;29;20325;-74
2022/04/14 06:09:03;;;;;;;12.90;11.80;;;13.30;99.90;;;;;;4954069;28;20264;-73
2022/04/14 06:11:29;;;;;;;21.07;19.77;;;13.60;99.90;;;;;;4953902;29;20578;-74
2022/04/14 06:13:55;;;;;;;44.50;41.97;;;13.70;99.90;;;;;;4939525;29;20300;-74
2022/04/14 06:16:21;;;;;;;64.50;60.73;;;13.70;99.90;;;;;;4935619;29;20214;-74
2022/04/14 06:18:47;;;;;;;55.60;52.20;;;14.00;99.90;;;;;;4934740;29;20233;-76
2022/04/14 06:21:13;;;;;;;43.07;40.57;;;14.30;99.90;;;;;;4933628;29;20652;-76
2022/04/14 06:23:38;;;;;;;39.70;36.93;;;14.30;99.90;;;;;;4934226;29;20210;-77
2022/04/14 06:26:04;;;;;;;24.97;23.10;;;14.30;99.90;;;;;;4933671;29;20214;-76
2022/04/14 06:28:31;;;;;;;16.77;15.50;;;14.60;99.90;;;;;;4952702;29;20333;-78
2022/04/14 06:30:57;;;;;;;9.40;8.47;;;14.60;99.90;;;;;;4953297;29;20185;-77
2022/04/14 06:33:23;;;;;;;8.33;7.27;;;14.90;99.90;;;;;;4955067;28;20174;-68
2022/04/14 06:35:50;;;;;;;7.43;6.73;;;15.10;99.90;;;;;;4949133;29;20262;-69
2022/04/14 06:38:16;;;;;;;9.50;7.20;;;15.20;99.90;;;;;;4941093;29;20278;-67
2022/04/14 06:40:42;;;;;;;8.13;7.43;;;15.00;99.90;;;;;;4939582;29;20269;-67
2022/04/14 06:43:08;;;;;;;8.97;7.57;;;15.00;99.90;;;;;;4946381;29;20722;-68
2022/04/14 06:45:34;;;;;;;11.73;10.70;;;15.30;99.90;;;;;;4934376;29;20210;-68
2022/04/14 06:48:00;;;;;;;15.73;12.67;;;15.70;99.90;;;;;;4935582;29;20182;-68
2022/04/14 06:50:26;;;;;;;12.23;8.47;;;16.10;99.90;;;;;;4935077;29;20214;-68
2022/04/14 06:52:52;;;;;;;12.77;7.47;;;16.50;99.90;;;;;;4934795;29;20214;-68
2022/04/14 06:55:21;;;;;;;8.03;7.30;;;16.60;99.90;;;;;;4943552;29;20576;-68
2022/04/14 06:57:48;;;;;;;8.27;7.20;;;16.40;99.90;;;;;;4967870;28;20209;-68
2022/04/14 07:00:14;;;;;;;9.73;6.93;;;16.20;99.90;;;;;;4953682;28;20189;-68
2022/04/14 07:02:47;;;;;;;8.57;7.77;;;16.40;99.90;;;;;;4953583;28;20304;-68
2022/04/14 07:05:13;;;;;;;9.93;9.07;;;16.70;99.90;;;;;;4953588;28;20257;-74
2022/04/14 07:07:39;;;;;;;14.17;13.27;;;17.00;99.90;;;;;;4969559;28;20181;-75
2022/04/14 07:10:05;;;;;;;12.33;11.13;;;17.40;99.90;;;;;;4942543;29;20191;-74
2022/04/14 07:12:31;;;;;;;10.80;9.93;;;17.40;99.90;;;;;;4953028;29;20212;-76
2022/04/14 07:14:57;;;;;;;12.07;9.60;;;17.00;99.90;;;;;;4968498;28;20599;-74
2022/04/14 07:17:23;;;;;;;12.87;11.87;;;17.10;99.90;;;;;;4965631;28;20547;-73
2022/04/14 07:19:49;;;;;;;13.97;12.77;;;17.50;99.90;;;;;;4944354;29;20268;-75
2022/04/14 07:22:18;;;;;;;15.93;14.87;;;17.80;99.90;;;;;;4949275;28;20186;-74
2022/04/14 07:24:51;;;;;;;17.57;15.83;;;18.00;99.90;;;;;;4953354;28;20213;-74
2022/04/14 07:27:19;;;;;;;20.17;18.43;;;18.40;99.90;;;;;;4951434;29;20190;-75
2022/04/14 07:29:48;;;;;;;18.43;17.03;;;18.50;99.90;;;;;;4953146;28;20245;-74
2022/04/14 07:32:15;;;;;;;18.57;16.77;;;18.80;99.90;;;;;;4941724;28;20225;-75
2022/04/14 07:34:41;;;;;;;20.43;18.33;;;18.60;99.90;;;;;;4932330;29;20233;-73
2022/04/14 07:37:07;;;;;;;21.20;19.60;;;18.40;99.90;;;;;;4948764;29;20186;-75
2022/04/14 07:39:33;;;;;;;24.10;21.80;;;18.50;99.90;;;;;;4950631;28;20242;-75
2022/04/14 07:41:59;;;;;;;23.90;21.67;;;19.00;99.90;;;;;;4952073;29;20806;-75
2022/04/14 07:44:25;;;;;;;30.77;27.83;;;19.30;99.90;;;;;;4952026;28;20201;-75
2022/04/14 07:46:51;;;;;;;28.10;25.50;;;19.50;99.90;;;;;;4951824;29;20188;-75
2022/04/14 07:49:16;;;;;;;26.35;23.48;;;19.90;99.90;;;;;;4946754;29;20265;-75
2022/04/14 07:51:42;;;;;;;26.65;23.90;;;20.20;99.90;;;;;;4933726;29;20217;-75
2022/04/14 07:54:08;;;;;;;23.75;19.45;;;20.70;99.90;;;;;;4933959;29;20225;-75
2022/04/14 07:56:33;;;;;;;24.13;21.73;;;20.90;99.90;;;;;;4934047;29;20269;-74
2022/04/14 07:59:00;;;;;;;25.50;23.05;;;20.60;99.90;;;;;;4933759;29;20272;-75
2022/04/14 08:01:26;;;;;;;29.02;24.65;;;20.80;99.90;;;;;;4933981;29;20197;-75
2022/04/14 08:03:52;;;;;;;30.38;27.33;;;20.70;99.90;;;;;;4939823;28;20575;-75
2022/04/14 08:06:18;;;;;;;29.00;23.15;;;20.90;99.90;;;;;;4953212;29;20540;-74
2022/04/14 08:08:44;;;;;;;35.70;32.50;;;21.20;99.90;;;;;;4953264;28;20559;-75
2022/04/14 08:11:10;;;;;;;23.58;19.40;;;21.40;99.90;;;;;;4953128;28;20269;-75
2022/04/14 08:13:38;;;;;;;27.42;19.23;;;21.50;99.90;;;;;;4952378;28;20244;-75
2022/04/14 08:16:06;;;;;;;24.38;20.15;;;21.40;99.90;;;;;;4952055;29;20178;-75
2022/04/14 08:18:37;;;;;;;30.35;27.33;;;21.20;99.90;;;;;;4937265;28;20190;-75
2022/04/14 08:21:03;;;;;;;29.17;26.38;;;21.20;99.90;;;;;;4944769;29;20179;-75
2022/04/14 08:23:30;;;;;;;30.15;27.40;;;21.00;99.90;;;;;;4946039;29;20182;-75
2022/04/14 08:25:56;;;;;;;37.78;34.63;;;21.10;99.90;;;;;;4935394;29;20206;-76
2022/04/14 08:28:22;;;;;;;45.60;42.10;;;21.00;99.90;;;;;;4934234;29;20535;-75
2022/04/14 08:30:48;;;;;;;34.10;31.33;;;21.50;99.90;;;;;;4934412;29;20281;-76
2022/04/14 08:33:16;;;;;;;28.75;25.85;;;21.90;99.90;;;;;;4951925;29;20217;-76
2022/04/14 08:35:42;;;;;;;27.05;24.35;;;22.20;99.90;;;;;;4957878;28;20208;-76
2022/04/14 08:38:08;;;;;;;29.15;25.83;;;22.20;99.90;;;;;;4952566;29;20190;-76
2022/04/14 08:40:37;;;;;;;27.33;24.70;;;22.50;99.90;;;;;;4952885;29;20237;-76
2022/04/14 08:43:04;;;;;;;27.85;25.05;;;22.00;99.90;;;;;;4952920;28;20186;-76
2022/04/14 08:45:33;;;;;;;28.75;25.95;;;21.90;99.90;;;;;;4948380;28;20212;-76
2022/04/14 08:48:00;;;;;;;31.63;28.30;;;21.90;99.90;;;;;;4933721;29;20202;-75
2022/04/14 08:50:27;;;;;;;30.38;27.65;;;22.10;99.90;;;;;;4935139;29;20194;-76
2022/04/14 08:52:53;;;;;;;33.22;30.25;;;22.50;99.90;;;;;;4935996;29;20268;-76
2022/04/14 08:55:20;;;;;;;30.98;28.38;;;22.60;99.90;;;;;;4935961;29;20209;-76
2022/04/14 08:57:46;;;;;;;33.28;30.42;;;22.90;99.90;;;;;;4936619;29;20179;-76
2022/04/14 09:00:18;;;;;;;34.35;31.17;;;22.90;99.90;;;;;;4950135;29;20190;-76
2022/04/14 09:02:49;;;;;;;36.03;33.13;;;22.70;99.90;;;;;;4954767;29;20182;-76
2022/04/14 09:05:17;;;;;;;36.65;33.38;;;22.60;99.90;;;;;;4955844;28;20202;-76
2022/04/14 09:07:50;;;;;;;29.85;26.90;;;22.70;99.90;;;;;;4955484;28;20248;-76
2022/04/14 09:10:17;;;;;;;31.58;28.38;;;23.00;99.90;;;;;;4954725;29;20662;-76
2022/04/14 09:12:43;;;;;;;23.15;20.95;;;23.20;99.90;;;;;;4953281;28;20216;-76
2022/04/14 09:15:09;;;;;;;26.05;22.13;;;23.30;99.90;;;;;;4966896;23;20229;-72
2022/04/14 09:17:35;;;;;;;34.15;31.13;;;22.90;99.90;;;;;;4969439;28;20271;-72
2022/04/14 09:20:27;;;;;;;26.83;24.45;;;22.70;99.90;;;;;;4955423;28;20836;-73
2022/04/14 09:23:31;;;;;;;28.95;26.35;;;22.70;99.90;;;;;;4955388;29;20725;-73
2022/04/14 09:26:13;;;;;;;21.60;16.10;;;22.90;99.90;;;;;;4933762;29;20718;-72
2022/04/14 09:29:00;;;;;;;17.08;14.63;;;23.10;99.30;;;;;;4932753;29;20186;-72
2022/04/14 09:31:27;;;;;;;15.95;14.43;;;23.70;98.20;;;;;;4935268;29;20229;-72
2022/04/14 09:33:53;;;;;;;20.58;14.25;;;23.90;97.70;;;;;;4935940;29;20615;-72
2022/04/14 09:36:20;;;;;;;20.98;15.32;;;23.40;98.20;;;;;;4936161;29;20187;-73
2022/04/14 09:39:07;;;;;;;19.58;15.52;;;23.10;98.20;;;;;;4935941;29;20178;-72
2022/04/14 09:41:38;;;;;;;15.32;13.40;;;22.90;98.40;;;;;;4942029;29;20186;-73
2022/04/14 09:44:08;;;;;;;16.58;14.85;;;23.20;98.70;;;;;;4955699;28;20217;-73
2022/04/14 09:46:34;;;;;;;15.82;14.23;;;23.60;98.10;;;;;;4956999;28;20186;-73
2022/04/14 09:49:09;;;;;;;15.38;13.57;;;23.80;97.20;;;;;;4955245;29;20232;-73
2022/04/14 09:51:42;;;;;;;16.55;14.77;;;24.10;97.50;;;;;;4954710;28;20247;-73
2022/04/14 09:54:15;;;;;;;15.70;14.07;;;24.60;95.70;;;;;;4969781;28;20225;-73
2022/04/14 09:56:52;;;;;;;16.70;14.38;;;24.30;95.30;;;;;;4954437;28;20182;-73
2022/04/14 09:59:20;;;;;;;18.90;14.45;;;24.40;96.10;;;;;;4954819;28;20198;-73
2022/04/14 10:01:47;;;;;;;15.63;13.90;;;24.90;94.60;;;;;;4953879;28;20186;-73
2022/04/14 10:04:29;;;;;;;15.90;13.48;;;24.80;94.10;;;;;;4953415;29;20220;-72
2022/04/14 10:07:09;;;;;;;17.67;12.43;;;24.80;93.80;;;;;;4954209;29;20194;-73
2022/04/14 10:09:38;;;;;;;21.65;14.68;;;25.20;93.00;;;;;;4953341;29;20338;-73
2022/04/14 10:12:25;;;;;;;12.98;10.75;;;25.70;91.80;;;;;;4953449;29;20198;-73
2022/04/14 10:14:58;;;;;;;15.27;12.35;;;25.70;91.10;;;;;;4955789;28;20217;-73
2022/04/14 10:17:28;;;;;;;13.65;11.45;;;25.80;89.20;;;;;;4954249;28;20218;-73
2022/04/14 10:19:54;;;;;;;14.40;12.88;;;26.30;87.80;;;;;;4954602;28;20188;-73
2022/04/14 10:22:20;;;;;;;15.13;13.38;;;26.30;84.80;;;;;;4954363;28;20189;-72
2022/04/14 10:24:46;;;;;;;13.70;10.93;;;25.70;86.20;;;;;;4954250;28;20197;-74
2022/04/14 10:27:14;;;;;;;16.85;12.13;;;25.70;86.00;;;;;;4952794;29;20577;-72
2022/04/14 10:29:41;;;;;;;18.45;11.02;;;26.40;82.10;;;;;;4954379;28;20193;-72
2022/04/14 10:32:08;;;;;;;14.40;12.93;;;26.80;79.70;;;;;;4954203;28;20577;-73
2022/04/14 10:34:34;;;;;;;14.13;10.95;;;27.10;77.20;;;;;;4954199;28;20205;-73
2022/04/14 10:37:07;;;;;;;13.80;12.43;;;27.20;79.60;;;;;;4952697;29;20186;-73
2022/04/14 10:39:38;;;;;;;12.95;11.70;;;26.70;78.10;;;;;;4953638;28;20776;-73
2022/04/14 10:42:07;;;;;;;14.10;11.18;;;26.40;78.00;;;;;;4956514;29;20182;-71
2022/04/14 10:44:45;;;;;;;14.77;13.30;;;26.60;77.60;;;;;;4956419;28;20292;-73
2022/04/14 10:47:12;;;;;;;13.88;12.52;;;26.60;74.30;;;;;;4968443;28;20210;-73
2022/04/14 10:49:40;;;;;;;14.15;12.73;;;26.30;75.90;;;;;;4968805;28;20617;-72
2022/04/14 10:52:26;;;;;;;14.00;12.70;;;26.50;78.20;;;;;;4953723;28;20209;-74
2022/04/14 10:54:59;;;;;;;12.70;10.25;;;27.20;74.20;;;;;;4934547;29;20234;-73
2022/04/14 10:57:41;;;;;;;11.65;10.32;;;27.30;72.00;;;;;;4934341;29;20201;-73
2022/04/14 11:00:30;;;;;;;11.52;10.40;;;26.90;72.20;;;;;;4934784;29;20206;-73
2022/04/14 11:03:13;;;;;;;13.13;9.80;;;27.20;71.70;;;;;;4943192;29;20256;-73
2022/04/14 11:05:47;;;;;;;10.00;9.02;;;27.00;71.80;;;;;;4934386;29;20210;-72
2022/04/14 11:08:27;;;;;;;13.35;9.05;;;26.90;69.70;;;;;;4948823;29;20308;-73
2022/04/14 11:11:09;;;;;;;10.45;9.45;;;26.70;70.40;;;;;;4953547;28;20227;-73
2022/04/14 11:13:50;;;;;;;13.20;9.68;;;27.00;69.40;;;;;;4952420;28;20225;-73
2022/04/14 11:16:38;;;;;;;11.10;8.60;;;27.10;69.10;;;;;;4952363;29;20186;-73
2022/04/14 11:19:19;;;;;;;9.85;8.95;;;27.20;67.90;;;;;;4951879;29;20553;-73
2022/04/14 11:22:07;;;;;;;10.13;8.77;;;27.30;69.80;;;;;;4952754;29;20662;-73
2022/04/14 11:24:36;;;;;;;10.98;8.43;;;27.70;66.80;;;;;;4953287;28;20209;-73
2022/04/14 11:27:13;;;;;;;16.73;9.55;;;27.50;67.00;;;;;;4952884;28;20189;-73
2022/04/14 11:29:40;;;;;;;12.02;8.90;;;27.50;66.10;;;;;;4951980;29;20185;-73
2022/04/14 11:32:07;;;;;;;14.13;9.27;;;26.70;67.90;;;;;;4952903;28;20217;-73
2022/04/14 11:34:37;;;;;;;13.77;8.38;;;26.50;68.80;;;;;;4952777;28;20765;-73
2022/04/14 11:37:23;;;;;;;13.18;8.68;;;26.50;68.50;;;;;;4934511;29;20725;-73
2022/04/14 11:40:20;;;;;;;15.63;8.95;;;27.20;66.40;;;;;;4934245;29;20817;-73
2022/04/14 11:42:54;;;;;;;10.77;8.85;;;27.60;66.40;;;;;;4933068;29;20621;-73
2022/04/14 11:45:23;;;;;;;18.60;9.88;;;28.00;63.10;;;;;;4934392;29;20770;-72
2022/04/14 11:47:52;;;;;;;10.95;9.23;;;27.90;62.50;;;;;;4934052;29;20182;-73
2022/04/14 11:50:28;;;;;;;12.52;10.70;;;27.90;62.30;;;;;;4951033;29;20632;-73
2022/04/14 11:52:58;;;;;;;13.15;9.88;;;28.30;62.40;;;;;;4953352;28;20216;-73
2022/04/14 11:55:41;;;;;;;14.48;9.52;;;28.30;60.30;;;;;;4953518;29;20212;-73
2022/04/14 11:58:12;;;;;;;17.52;12.63;;;28.50;61.00;;;;;;4952997;28;20182;-73
2022/04/14 12:00:45;;;;;;;17.42;10.48;;;28.70;58.90;;;;;;4953364;28;20209;-73
2022/04/14 12:03:12;;;;;;;12.65;11.40;;;28.10;60.00;;;;;;4961219;28;20189;-73
2022/04/14 12:05:40;;;;;;;15.70;12.10;;;28.40;60.60;;;;;;4934009;29;20617;-73
2022/04/14 12:08:12;;;;;;;12.57;11.15;;;28.50;58.80;;;;;;4933637;29;20190;-73
2022/04/14 12:10:38;;;;;;;15.65;12.27;;;28.30;60.90;;;;;;4932878;29;20194;-73
2022/04/14 12:13:08;;;;;;;14.98;12.63;;;28.40;61.40;;;;;;4934498;29;20214;-73
2022/04/14 12:15:34;;;;;;;14.80;11.07;;;28.20;61.50;;;;;;4936971;29;20223;-73
2022/04/14 12:18:08;;;;;;;16.30;11.32;;;28.20;62.70;;;;;;4950879;29;20236;-73
2022/04/14 12:20:40;;;;;;;14.82;11.55;;;28.50;62.10;;;;;;4967900;28;20193;-73
2022/04/14 12:23:12;;;;;;;15.35;13.75;;;28.80;59.60;;;;;;4953071;29;20189;-73
2022/04/14 12:25:39;;;;;;;14.90;12.50;;;28.30;60.60;;;;;;4955300;28;20296;-73
2022/04/14 12:28:06;;;;;;;13.52;12.10;;;26.90;63.40;;;;;;4971362;28;20245;-72
2022/04/14 12:30:32;;;;;;;12.43;9.55;;;26.50;65.60;;;;;;4956630;28;20269;-73
2022/04/14 12:33:05;;;;;;;11.05;9.10;;;26.80;64.80;;;;;;4957116;28;20693;-73
2022/04/14 12:35:39;;;;;;;12.18;9.18;;;27.00;66.70;;;;;;4955807;29;20209;-72
2022/04/14 12:38:19;;;;;;;12.73;11.00;;;27.70;63.30;;;;;;4956730;28;20186;-73
2022/04/14 12:40:54;;;;;;;13.95;10.38;;;28.30;62.40;;;;;;4957125;28;20182;-73
2022/04/14 12:43:23;;;;;;;12.70;10.57;;;28.10;61.00;;;;;;4956497;28;20544;-73
2022/04/14 12:45:50;;;;;;;15.10;9.90;;;28.10;62.70;;;;;;4956292;28;20215;-72
2022/04/14 12:48:45;;;;;;;13.68;10.48;;;28.40;62.80;;;;;;4956247;28;20190;-72
2022/04/14 12:51:10;;;;;;;12.18;10.23;;;28.20;62.00;;;;;;4947615;28;20349;-73
2022/04/14 12:53:36;;;;;;;11.95;10.50;;;28.60;61.30;;;;;;4956310;28;20697;-73
2022/04/14 12:56:12;;;;;;;17.60;15.85;;;29.50;60.10;;;;;;4956201;28;20204;-73
2022/04/14 12:58:39;;;;;;;19.80;16.95;;;29.10;60.20;;;;;;4954350;29;20209;-73
2022/04/14 13:01:12;;;;;;;14.93;13.23;;;28.50;60.80;;;;;;4956226;28;20182;-74
2022/04/14 13:03:50;;;;;;;13.90;12.73;;;28.00;62.30;;;;;;4956097;28;20202;-73
2022/04/14 13:06:21;;;;;;;18.20;16.55;;;28.50;61.10;;;;;;4955997;28;20188;-73
2022/04/14 13:08:47;;;;;;;16.45;14.80;;;28.50;60.20;;;;;;4955568;28;20558;-73
2022/04/14 13:11:46;;;;;;;16.00;13.88;;;27.90;61.10;;;;;;4955846;28;20185;-73
2022/04/14 13:14:19;;;;;;;13.55;12.25;;;27.70;61.80;;;;;;4953035;28;20210;-73
2022/04/14 13:16:46;;;;;;;12.00;10.80;;;28.50;62.10;;;;;;4935585;29;20185;-73
2022/04/14 13:19:12;;;;;;;20.38;15.13;;;29.10;61.10;;;;;;4936758;29;20198;-73
2022/04/14 13:21:38;;;;;;;20.52;17.27;;;29.10;59.80;;;;;;4935861;29;20191;-73
2022/04/14 13:24:04;;;;;;;19.88;18.05;;;29.40;59.60;;;;;;4937811;29;20217;-73
2022/04/14 13:26:30;;;;;;;27.60;25.35;;;29.70;57.80;;;;;;4946955;29;20201;-73
2022/04/14 13:28:56;;;;;;;21.88;19.77;;;29.70;57.70;;;;;;4958133;28;20185;-74
2022/04/14 13:31:22;;;;;;;19.65;17.95;;;29.80;57.80;;;;;;4956001;28;20313;-73
2022/04/14 13:33:48;;;;;;;16.98;14.18;;;30.20;56.60;;;;;;4955702;28;20272;-73
2022/04/14 13:36:13;;;;;;;16.15;14.70;;;30.50;55.30;;;;;;4954343;28;20188;-73
2022/04/14 13:38:39;;;;;;;18.70;16.58;;;29.60;56.90;;;;;;4955234;28;20186;-73
2022/04/14 13:41:05;;;;;;;15.10;13.77;;;29.60;57.10;;;;;;4955266;29;20245;-73
2022/04/14 13:43:31;;;;;;;13.10;11.90;;;29.70;56.90;;;;;;4955665;29;20398;-73
2022/04/14 13:45:57;;;;;;;12.80;9.85;;;29.90;55.60;;;;;;4956945;29;20217;-74
2022/04/14 13:48:22;;;;;;;11.02;10.00;;;30.10;54.50;;;;;;4955406;28;20181;-73
2022/04/14 13:50:48;;;;;;;13.18;11.82;;;29.70;55.10;;;;;;4955202;28;20190;-73
2022/04/14 13:53:16;;;;;;;14.93;13.52;;;29.30;56.20;;;;;;4955473;28;20264;-73
2022/04/14 13:55:42;;;;;;;15.38;14.18;;;29.70;56.10;;;;;;4954673;28;20202;-73
2022/04/14 13:58:07;;;;;;;17.08;11.68;;;29.80;56.40;;;;;;4954827;28;20272;-73
2022/04/14 14:00:34;;;;;;;12.00;10.60;;;29.70;55.00;;;;;;4969939;28;20245;-73
2022/04/14 14:03:01;;;;;;;15.75;14.55;;;29.30;54.90;;;;;;4954735;28;20182;-71
2022/04/14 14:05:27;;;;;;;18.75;14.88;;;28.90;57.30;;;;;;4954928;28;20206;-72
2022/04/14 14:07:52;;;;;;;21.90;19.67;;;28.90;56.50;;;;;;4969467;28;20182;-72
2022/04/14 14:10:18;;;;;;;28.95;26.70;;;27.90;57.20;;;;;;4953422;29;20178;-73
2022/04/14 14:12:44;;;;;;;15.82;14.27;;;27.10;59.50;;;;;;4954570;28;20209;-67
2022/04/14 14:15:10;;;;;;;14.32;13.10;;;27.50;60.20;;;;;;4954553;28;20705;-67
2022/04/14 14:17:40;;;;;;;14.52;12.75;;;28.00;59.40;;;;;;4949653;28;20209;-67
2022/04/14 14:20:11;;;;;;;14.32;12.95;;;28.10;58.90;;;;;;4936426;29;20537;-67
2022/04/14 14:22:37;;;;;;;19.48;18.10;;;28.40;60.30;;;;;;4952695;28;20194;-67
2022/04/14 14:25:04;;;;;;;22.80;20.85;;;29.00;58.10;;;;;;4954434;28;20201;-68
2022/04/14 14:27:29;;;;;;;30.00;27.83;;;29.00;58.20;;;;;;4954068;28;20201;-68
2022/04/14 14:29:55;;;;;;;23.65;21.63;;;28.70;57.60;;;;;;4969398;28;20186;-68
2022/04/14 14:32:22;;;;;;;29.20;26.73;;;28.40;59.00;;;;;;4953935;28;20673;-72
2022/04/14 14:34:47;;;;;;;18.48;16.75;;;28.50;58.30;;;;;;4953719;28;20342;-67
2022/04/14 14:37:13;;;;;;;21.05;18.98;;;28.30;59.50;;;;;;4953568;28;20277;-67
2022/04/14 14:39:39;;;;;;;15.98;14.48;;;28.50;59.60;;;;;;4953881;28;20182;-67
2022/04/14 14:42:06;;;;;;;14.30;12.90;;;28.40;60.30;;;;;;4954035;28;20196;-67
2022/04/14 14:44:32;;;;;;;20.70;12.40;;;28.20;61.00;;;;;;4953969;28;20211;-73
2022/04/14 14:46:57;;;;;;;17.60;12.32;;;28.10;60.50;;;;;;4951715;28;20232;-66
2022/04/14 14:49:26;;;;;;;12.30;10.95;;;27.80;61.10;;;;;;4953845;28;20189;-67
2022/04/14 14:51:53;;;;;;;12.77;11.35;;;27.70;62.70;;;;;;4968564;28;20206;-67
2022/04/14 14:54:18;;;;;;;16.45;13.60;;;27.50;63.70;;;;;;4953600;28;20626;-67
2022/04/14 14:56:44;;;;;;;15.20;10.43;;;27.10;64.40;;;;;;4953711;28;20186;-67
2022/04/14 14:59:13;;;;;;;14.73;12.00;;;27.00;65.90;;;;;;4954339;28;20189;-67
2022/04/14 15:01:43;;;;;;;15.52;13.13;;;27.60;65.70;;;;;;4953587;28;20189;-69
2022/04/14 15:04:12;;;;;;;15.88;12.82;;;28.00;64.80;;;;;;4960328;28;20717;-67
2022/04/14 15:06:39;;;;;;;15.80;11.20;;;28.00;63.20;;;;;;4953809;28;20725;-69
2022/04/14 15:09:06;;;;;;;14.48;11.25;;;28.30;62.80;;;;;;4953881;28;20197;-67
2022/04/14 15:11:32;;;;;;;18.90;11.40;;;28.50;62.70;;;;;;4954051;28;20717;-68
2022/04/14 15:13:58;;;;;;;17.90;11.45;;;28.80;62.20;;;;;;4953738;28;20182;-67
2022/04/14 15:16:24;;;;;;;14.90;13.05;;;28.40;62.20;;;;;;4957959;23;20607;-67
2022/04/14 15:18:49;;;;;;;16.05;11.80;;;27.70;64.00;;;;;;4933329;29;20221;-67
2022/04/14 15:21:15;;;;;;;15.65;12.23;;;27.50;66.30;;;;;;4933281;29;20186;-67
2022/04/14 15:23:41;;;;;;;14.40;12.93;;;27.40;65.90;;;;;;4934162;29;20559;-67
2022/04/14 15:26:08;;;;;;;15.35;13.55;;;26.90;67.30;;;;;;4934383;29;20293;-67
2022/04/14 15:28:34;;;;;;;15.45;12.38;;;26.50;68.20;;;;;;4933390;29;20617;-69
2022/04/14 15:31:01;;;;;;;15.85;11.77;;;26.20;70.00;;;;;;4934012;29;20647;-67
2022/04/14 15:33:28;;;;;;;14.32;11.80;;;26.00;70.60;;;;;;4934002;29;20260;-67
2022/04/14 15:35:57;;;;;;;15.25;12.43;;;26.20;69.50;;;;;;4933022;29;20209;-67
2022/04/14 15:38:24;;;;;;;19.70;15.07;;;25.50;71.00;;;;;;4933458;29;20186;-67